sensor_id;sensor_type;location;lat;lon;timestamp;temperature;humidity
23301;DHT22;11819;51.394;12.340;2023-06-22T00:00:49;23.50;83.30
23301;DHT22;11819;51.394;12.340;2023-06-22T00:03:17;23.60;83.20
23301;DHT22;11819;51.394;12.340;2023-06-22T00:05:42;23.60;83.00
23301;DHT22;11819;51.394;12.340;2023-06-22T00:08:08;23.60;82.70
23301;DHT22;11819;51.394;12.340;2023-06-22T00:10:34;23.70;82.80
23301;DHT22;11819;51.394;12.340;2023-06-22T00:13:00;23.60;82.90
23301;DHT22;11819;51.394;12.340;2023-06-22T00:15:26;23.60;83.10
23301;DHT22;11819;51.394;12.340;2023-06-22T00:17:52;23.60;83.10
23301;DHT22;11819;51.394;12.340;2023-06-22T00:20:17;23.60;83.30
23301;DHT22;11819;51.394;12.340;2023-06-22T00:22:44;23.50;83.50
23301;DHT22;11819;51.394;12.340;2023-06-22T00:25:10;23.50;83.60
23301;DHT22;11819;51.394;12.340;2023-06-22T00:27:36;23.50;83.70
23301;DHT22;11819;51.394;12.340;2023-06-22T00:30:02;23.40;83.70
23301;DHT22;11819;51.394;12.340;2023-06-22T00:32:28;23.40;83.90
23301;DHT22;11819;51.394;12.340;2023-06-22T00:34:53;23.30;84.00
23301;DHT22;11819;51.394;12.340;2023-06-22T00:37:19;23.20;84.10
23301;DHT22;11819;51.394;12.340;2023-06-22T00:39:47;23.10;84.40
23301;DHT22;11819;51.394;12.340;2023-06-22T00:42:12;23.10;84.70
23301;DHT22;11819;51.394;12.340;2023-06-22T00:44:38;23.00;84.80
23301;DHT22;11819;51.394;12.340;2023-06-22T00:47:03;22.90;85.00
23301;DHT22;11819;51.394;12.340;2023-06-22T00:49:30;22.90;85.30
23301;DHT22;11819;51.394;12.340;2023-06-22T00:51:57;22.80;85.60
23301;DHT22;11819;51.394;12.340;2023-06-22T00:54:23;22.70;85.80
23301;DHT22;11819;51.394;12.340;2023-06-22T00:56:53;22.70;86.00
23301;DHT22;11819;51.394;12.340;2023-06-22T00:59:21;22.70;86.10
23301;DHT22;11819;51.394;12.340;2023-06-22T01:01:47;22.70;86.00
23301;DHT22;11819;51.394;12.340;2023-06-22T01:04:12;22.70;86.00
23301;DHT22;11819;51.394;12.340;2023-06-22T01:06:47;22.60;86.30
23301;DHT22;11819;51.394;12.340;2023-06-22T01:09:22;22.60;86.60
23301;DHT22;11819;51.394;12.340;2023-06-22T01:12:01;22.60;86.80
23301;DHT22;11819;51.394;12.340;2023-06-22T01:14:34;22.60;87.10
23301;DHT22;11819;51.394;12.340;2023-06-22T01:17:01;22.60;87.20
23301;DHT22;11819;51.394;12.340;2023-06-22T01:19:37;22.60;87.10
23301;DHT22;11819;51.394;12.340;2023-06-22T01:22:06;22.50;87.00
23301;DHT22;11819;51.394;12.340;2023-06-22T01:27:56;22.40;87.00
23301;DHT22;11819;51.394;12.340;2023-06-22T01:30:27;22.40;87.00
23301;DHT22;11819;51.394;12.340;2023-06-22T01:32:54;22.40;87.20
23301;DHT22;11819;51.394;12.340;2023-06-22T01:35:21;22.30;87.30
23301;DHT22;11819;51.394;12.340;2023-06-22T01:37:47;22.30;87.30
23301;DHT22;11819;51.394;12.340;2023-06-22T01:40:14;22.30;87.40
23301;DHT22;11819;51.394;12.340;2023-06-22T01:42:40;22.20;87.50
23301;DHT22;11819;51.394;12.340;2023-06-22T01:45:07;22.20;87.70
23301;DHT22;11819;51.394;12.340;2023-06-22T01:47:37;22.30;88.10
23301;DHT22;11819;51.394;12.340;2023-06-22T01:50:03;22.20;88.10
23301;DHT22;11819;51.394;12.340;2023-06-22T01:52:29;22.30;88.20
23301;DHT22;11819;51.394;12.340;2023-06-22T01:54:55;22.30;88.00
23301;DHT22;11819;51.394;12.340;2023-06-22T01:57:23;22.20;87.80
23301;DHT22;11819;51.394;12.340;2023-06-22T02:00:03;22.20;87.90
23301;DHT22;11819;51.394;12.340;2023-06-22T02:05:19;22.10;88.20
23301;DHT22;11819;51.394;12.340;2023-06-22T02:07:56;22.00;88.60
23301;DHT22;11819;51.394;12.340;2023-06-22T02:10:25;22.00;88.90
23301;DHT22;11819;51.394;12.340;2023-06-22T02:12:53;22.10;89.20
23301;DHT22;11819;51.394;12.340;2023-06-22T02:15:19;22.10;89.20
23301;DHT22;11819;51.394;12.340;2023-06-22T02:17:46;22.10;89.20
23301;DHT22;11819;51.394;12.340;2023-06-22T02:20:13;22.10;89.10
23301;DHT22;11819;51.394;12.340;2023-06-22T02:22:41;22.10;89.00
23301;DHT22;11819;51.394;12.340;2023-06-22T02:25:10;22.00;88.70
23301;DHT22;11819;51.394;12.340;2023-06-22T02:27:35;22.00;88.60
23301;DHT22;11819;51.394;12.340;2023-06-22T02:30:01;21.90;88.70
23301;DHT22;11819;51.394;12.340;2023-06-22T02:32:26;21.80;88.80
23301;DHT22;11819;51.394;12.340;2023-06-22T02:34:52;21.80;88.90
23301;DHT22;11819;51.394;12.340;2023-06-22T02:37:18;21.80;89.00
23301;DHT22;11819;51.394;12.340;2023-06-22T02:39:44;21.70;89.20
23301;DHT22;11819;51.394;12.340;2023-06-22T02:42:10;21.80;89.50
23301;DHT22;11819;51.394;12.340;2023-06-22T02:44:36;21.80;89.40
23301;DHT22;11819;51.394;12.340;2023-06-22T02:47:02;21.90;89.30
23301;DHT22;11819;51.394;12.340;2023-06-22T02:49:29;21.90;89.20
23301;DHT22;11819;51.394;12.340;2023-06-22T02:51:54;21.80;89.10
23301;DHT22;11819;51.394;12.340;2023-06-22T02:54:21;21.80;89.10
23301;DHT22;11819;51.394;12.340;2023-06-22T02:56:49;21.70;89.10
23301;DHT22;11819;51.394;12.340;2023-06-22T02:59:16;21.70;89.10
23301;DHT22;11819;51.394;12.340;2023-06-22T03:01:43;21.60;89.10
23301;DHT22;11819;51.394;12.340;2023-06-22T03:04:18;21.60;89.10
23301;DHT22;11819;51.394;12.340;2023-06-22T03:06:44;21.60;89.30
23301;DHT22;11819;51.394;12.340;2023-06-22T03:09:09;21.60;89.40
23301;DHT22;11819;51.394;12.340;2023-06-22T03:11:36;21.50;89.60
23301;DHT22;11819;51.394;12.340;2023-06-22T03:14:02;21.50;89.70
23301;DHT22;11819;51.394;12.340;2023-06-22T03:16:28;21.50;89.70
23301;DHT22;11819;51.394;12.340;2023-06-22T03:18:55;21.50;89.90
23301;DHT22;11819;51.394;12.340;2023-06-22T03:21:22;21.50;90.00
23301;DHT22;11819;51.394;12.340;2023-06-22T03:23:48;21.50;90.10
23301;DHT22;11819;51.394;12.340;2023-06-22T03:26:17;21.50;90.20
23301;DHT22;11819;51.394;12.340;2023-06-22T03:28:43;21.50;90.40
23301;DHT22;11819;51.394;12.340;2023-06-22T03:31:08;21.50;90.40
23301;DHT22;11819;51.394;12.340;2023-06-22T03:33:36;21.60;90.40
23301;DHT22;11819;51.394;12.340;2023-06-22T03:36:02;21.60;90.40
23301;DHT22;11819;51.394;12.340;2023-06-22T03:38:28;21.60;90.50
23301;DHT22;11819;51.394;12.340;2023-06-22T03:40:55;21.60;90.50
23301;DHT22;11819;51.394;12.340;2023-06-22T03:43:23;21.60;90.50
23301;DHT22;11819;51.394;12.340;2023-06-22T03:45:48;21.60;90.50
23301;DHT22;11819;51.394;12.340;2023-06-22T03:48:14;21.60;90.50
23301;DHT22;11819;51.394;12.340;2023-06-22T03:50:41;21.60;90.70
23301;DHT22;11819;51.394;12.340;2023-06-22T03:53:07;21.50;90.70
23301;DHT22;11819;51.394;12.340;2023-06-22T03:55:34;21.50;90.80
23301;DHT22;11819;51.394;12.340;2023-06-22T03:57:59;21.60;90.80
23301;DHT22;11819;51.394;12.340;2023-06-22T04:00:31;21.60;90.80
23301;DHT22;11819;51.394;12.340;2023-06-22T04:02:57;21.60;90.80
23301;DHT22;11819;51.394;12.340;2023-06-22T04:05:22;21.60;90.80
23301;DHT22;11819;51.394;12.340;2023-06-22T04:07:49;21.60;90.90
23301;DHT22;11819;51.394;12.340;2023-06-22T04:10:15;21.70;91.10
23301;DHT22;11819;51.394;12.340;2023-06-22T04:12:41;21.70;91.20
23301;DHT22;11819;51.394;12.340;2023-06-22T04:15:07;21.70;91.30
23301;DHT22;11819;51.394;12.340;2023-06-22T04:17:32;21.80;91.30
23301;DHT22;11819;51.394;12.340;2023-06-22T04:19:58;21.90;91.40
23301;DHT22;11819;51.394;12.340;2023-06-22T04:22:23;22.00;91.50
23301;DHT22;11819;51.394;12.340;2023-06-22T04:24:49;22.10;91.60
23301;DHT22;11819;51.394;12.340;2023-06-22T04:27:17;22.10;91.60
23301;DHT22;11819;51.394;12.340;2023-06-22T04:29:44;22.20;91.70
23301;DHT22;11819;51.394;12.340;2023-06-22T04:32:15;22.20;91.60
23301;DHT22;11819;51.394;12.340;2023-06-22T04:34:42;22.30;91.60
23301;DHT22;11819;51.394;12.340;2023-06-22T04:37:08;22.30;91.70
23301;DHT22;11819;51.394;12.340;2023-06-22T04:39:33;22.40;91.70
23301;DHT22;11819;51.394;12.340;2023-06-22T04:41:59;22.40;92.00
23301;DHT22;11819;51.394;12.340;2023-06-22T04:44:27;22.30;92.20
23301;DHT22;11819;51.394;12.340;2023-06-22T04:46:58;22.20;92.40
23301;DHT22;11819;51.394;12.340;2023-06-22T04:49:30;22.20;92.50
23301;DHT22;11819;51.394;12.340;2023-06-22T04:52:01;22.20;92.40
23301;DHT22;11819;51.394;12.340;2023-06-22T04:54:27;22.30;92.40
23301;DHT22;11819;51.394;12.340;2023-06-22T04:56:52;22.30;92.40
23301;DHT22;11819;51.394;12.340;2023-06-22T04:59:29;22.30;92.10
23301;DHT22;11819;51.394;12.340;2023-06-22T05:01:56;22.40;92.00
23301;DHT22;11819;51.394;12.340;2023-06-22T05:04:23;22.50;92.00
23301;DHT22;11819;51.394;12.340;2023-06-22T05:06:50;22.60;92.00
23301;DHT22;11819;51.394;12.340;2023-06-22T05:09:15;22.80;92.00
23301;DHT22;11819;51.394;12.340;2023-06-22T05:11:42;22.90;92.10
23301;DHT22;11819;51.394;12.340;2023-06-22T05:14:09;23.00;92.00
23301;DHT22;11819;51.394;12.340;2023-06-22T05:16:37;23.00;91.90
23301;DHT22;11819;51.394;12.340;2023-06-22T05:19:03;23.10;91.90
23301;DHT22;11819;51.394;12.340;2023-06-22T05:21:29;23.20;91.90
23301;DHT22;11819;51.394;12.340;2023-06-22T05:23:55;23.20;91.90
23301;DHT22;11819;51.394;12.340;2023-06-22T05:26:26;23.30;92.00
23301;DHT22;11819;51.394;12.340;2023-06-22T05:28:53;23.40;92.00
23301;DHT22;11819;51.394;12.340;2023-06-22T05:31:19;23.50;91.90
23301;DHT22;11819;51.394;12.340;2023-06-22T05:33:46;23.60;91.90
23301;DHT22;11819;51.394;12.340;2023-06-22T05:36:12;23.60;91.80
23301;DHT22;11819;51.394;12.340;2023-06-22T05:38:39;23.70;91.80
23301;DHT22;11819;51.394;12.340;2023-06-22T05:41:05;23.70;91.60
23301;DHT22;11819;51.394;12.340;2023-06-22T05:43:30;23.70;91.40
23301;DHT22;11819;51.394;12.340;2023-06-22T05:46:04;23.70;91.30
23301;DHT22;11819;51.394;12.340;2023-06-22T05:48:30;23.70;91.30
23301;DHT22;11819;51.394;12.340;2023-06-22T05:50:56;23.80;91.30
23301;DHT22;11819;51.394;12.340;2023-06-22T05:53:22;23.80;91.30
23301;DHT22;11819;51.394;12.340;2023-06-22T05:55:48;23.80;91.20
23301;DHT22;11819;51.394;12.340;2023-06-22T05:58:14;23.80;91.20
23301;DHT22;11819;51.394;12.340;2023-06-22T06:00:41;23.90;91.10
23301;DHT22;11819;51.394;12.340;2023-06-22T06:03:07;23.90;90.90
23301;DHT22;11819;51.394;12.340;2023-06-22T06:05:33;23.90;90.60
23301;DHT22;11819;51.394;12.340;2023-06-22T06:08:01;23.90;90.50
23301;DHT22;11819;51.394;12.340;2023-06-22T06:10:28;24.00;90.40
23301;DHT22;11819;51.394;12.340;2023-06-22T06:12:55;24.00;90.30
23301;DHT22;11819;51.394;12.340;2023-06-22T06:15:40;24.00;90.10
23301;DHT22;11819;51.394;12.340;2023-06-22T06:18:06;24.10;90.00
23301;DHT22;11819;51.394;12.340;2023-06-22T06:20:33;24.10;89.30
23301;DHT22;11819;51.394;12.340;2023-06-22T06:22:59;24.10;88.80
23301;DHT22;11819;51.394;12.340;2023-06-22T06:25:24;24.20;88.40
23301;DHT22;11819;51.394;12.340;2023-06-22T06:27:52;24.20;88.00
23301;DHT22;11819;51.394;12.340;2023-06-22T06:30:20;24.30;87.70
23301;DHT22;11819;51.394;12.340;2023-06-22T06:32:47;24.30;87.20
23301;DHT22;11819;51.394;12.340;2023-06-22T06:35:14;24.40;87.00
23301;DHT22;11819;51.394;12.340;2023-06-22T06:37:42;24.40;86.60
23301;DHT22;11819;51.394;12.340;2023-06-22T06:40:09;24.50;86.40
23301;DHT22;11819;51.394;12.340;2023-06-22T06:42:37;24.60;86.10
23301;DHT22;11819;51.394;12.340;2023-06-22T06:45:05;24.60;85.80
23301;DHT22;11819;51.394;12.340;2023-06-22T06:47:30;24.60;85.70
23301;DHT22;11819;51.394;12.340;2023-06-22T06:49:56;24.70;85.70
23301;DHT22;11819;51.394;12.340;2023-06-22T06:52:22;24.80;85.90
23301;DHT22;11819;51.394;12.340;2023-06-22T06:54:47;24.90;85.50
23301;DHT22;11819;51.394;12.340;2023-06-22T06:57:13;25.00;84.50
23301;DHT22;11819;51.394;12.340;2023-06-22T06:59:40;25.00;83.70
23301;DHT22;11819;51.394;12.340;2023-06-22T07:02:06;25.10;83.20
23301;DHT22;11819;51.394;12.340;2023-06-22T07:04:31;25.10;82.90
23301;DHT22;11819;51.394;12.340;2023-06-22T07:07:00;25.20;82.70
23301;DHT22;11819;51.394;12.340;2023-06-22T07:09:26;25.20;82.40
23301;DHT22;11819;51.394;12.340;2023-06-22T07:11:52;25.20;82.00
23301;DHT22;11819;51.394;12.340;2023-06-22T07:14:17;25.20;81.80
23301;DHT22;11819;51.394;12.340;2023-06-22T07:16:43;25.30;82.00
23301;DHT22;11819;51.394;12.340;2023-06-22T07:19:11;25.30;82.00
23301;DHT22;11819;51.394;12.340;2023-06-22T07:21:38;25.30;82.00
23301;DHT22;11819;51.394;12.340;2023-06-22T07:24:05;25.30;82.00
23301;DHT22;11819;51.394;12.340;2023-06-22T07:26:31;25.40;82.00
23301;DHT22;11819;51.394;12.340;2023-06-22T07:28:57;25.40;82.00
23301;DHT22;11819;51.394;12.340;2023-06-22T07:31:26;25.50;82.10
23301;DHT22;11819;51.394;12.340;2023-06-22T07:33:52;25.50;81.80
23301;DHT22;11819;51.394;12.340;2023-06-22T07:36:18;25.50;81.60
23301;DHT22;11819;51.394;12.340;2023-06-22T07:38:44;25.60;81.10
23301;DHT22;11819;51.394;12.340;2023-06-22T07:41:10;25.60;80.80
23301;DHT22;11819;51.394;12.340;2023-06-22T07:43:35;25.60;80.20
23301;DHT22;11819;51.394;12.340;2023-06-22T07:46:05;25.70;80.10
23301;DHT22;11819;51.394;12.340;2023-06-22T07:48:31;25.70;79.70
23301;DHT22;11819;51.394;12.340;2023-06-22T07:50:57;25.80;79.20
23301;DHT22;11819;51.394;12.340;2023-06-22T07:53:23;25.90;78.40
23301;DHT22;11819;51.394;12.340;2023-06-22T07:55:49;26.00;78.50
23301;DHT22;11819;51.394;12.340;2023-06-22T07:58:15;26.10;78.60
23301;DHT22;11819;51.394;12.340;2023-06-22T08:00:41;26.10;78.50
23301;DHT22;11819;51.394;12.340;2023-06-22T08:03:06;26.20;78.40
23301;DHT22;11819;51.394;12.340;2023-06-22T08:05:32;26.20;78.20
23301;DHT22;11819;51.394;12.340;2023-06-22T08:07:58;26.30;78.30
23301;DHT22;11819;51.394;12.340;2023-06-22T08:10:24;26.30;78.30
23301;DHT22;11819;51.394;12.340;2023-06-22T08:12:49;26.30;78.20
23301;DHT22;11819;51.394;12.340;2023-06-22T08:15:15;26.30;77.50
23301;DHT22;11819;51.394;12.340;2023-06-22T08:17:41;26.40;77.10
23301;DHT22;11819;51.394;12.340;2023-06-22T08:20:07;26.40;76.40
23301;DHT22;11819;51.394;12.340;2023-06-22T08:22:40;26.40;76.00
23301;DHT22;11819;51.394;12.340;2023-06-22T08:25:06;26.40;75.60
23301;DHT22;11819;51.394;12.340;2023-06-22T08:27:32;26.40;75.50
23301;DHT22;11819;51.394;12.340;2023-06-22T08:29:59;26.50;75.80
23301;DHT22;11819;51.394;12.340;2023-06-22T08:32:26;26.50;75.10
23301;DHT22;11819;51.394;12.340;2023-06-22T08:34:56;26.60;74.40
23301;DHT22;11819;51.394;12.340;2023-06-22T08:37:22;26.60;74.70
23301;DHT22;11819;51.394;12.340;2023-06-22T08:39:59;26.70;74.70
23301;DHT22;11819;51.394;12.340;2023-06-22T08:42:26;26.80;74.90
23301;DHT22;11819;51.394;12.340;2023-06-22T08:44:52;26.80;74.50
23301;DHT22;11819;51.394;12.340;2023-06-22T08:47:18;26.90;73.60
23301;DHT22;11819;51.394;12.340;2023-06-22T08:49:43;26.90;73.50
23301;DHT22;11819;51.394;12.340;2023-06-22T08:52:09;27.00;73.90
23301;DHT22;11819;51.394;12.340;2023-06-22T08:54:34;27.00;73.20
23301;DHT22;11819;51.394;12.340;2023-06-22T08:57:01;27.00;72.20
23301;DHT22;11819;51.394;12.340;2023-06-22T08:59:27;27.10;71.60
23301;DHT22;11819;51.394;12.340;2023-06-22T09:01:52;27.20;71.30
23301;DHT22;11819;51.394;12.340;2023-06-22T09:04:18;27.20;69.90
23301;DHT22;11819;51.394;12.340;2023-06-22T09:06:58;27.20;69.50
23301;DHT22;11819;51.394;12.340;2023-06-22T09:09:24;27.30;69.70
23301;DHT22;11819;51.394;12.340;2023-06-22T09:11:50;27.40;69.80
23301;DHT22;11819;51.394;12.340;2023-06-22T09:14:15;27.40;69.70
23301;DHT22;11819;51.394;12.340;2023-06-22T09:16:41;27.40;68.00
23301;DHT22;11819;51.394;12.340;2023-06-22T09:19:08;27.40;68.00
23301;DHT22;11819;51.394;12.340;2023-06-22T09:21:34;27.40;67.90
23301;DHT22;11819;51.394;12.340;2023-06-22T09:23:59;27.40;68.00
23301;DHT22;11819;51.394;12.340;2023-06-22T09:26:25;27.50;68.10
23301;DHT22;11819;51.394;12.340;2023-06-22T09:28:51;27.50;68.50
23301;DHT22;11819;51.394;12.340;2023-06-22T09:31:16;27.50;67.70
23301;DHT22;11819;51.394;12.340;2023-06-22T09:33:42;27.60;67.50
23301;DHT22;11819;51.394;12.340;2023-06-22T09:36:08;27.70;68.30
23301;DHT22;11819;51.394;12.340;2023-06-22T09:38:37;27.80;68.80
23301;DHT22;11819;51.394;12.340;2023-06-22T09:41:03;27.80;67.70
23301;DHT22;11819;51.394;12.340;2023-06-22T09:43:30;27.80;68.50
23301;DHT22;11819;51.394;12.340;2023-06-22T09:45:58;27.90;67.80
23301;DHT22;11819;51.394;12.340;2023-06-22T09:48:24;27.90;66.70
23301;DHT22;11819;51.394;12.340;2023-06-22T09:50:49;28.00;67.20
23301;DHT22;11819;51.394;12.340;2023-06-22T09:53:15;28.00;66.80
23301;DHT22;11819;51.394;12.340;2023-06-22T09:55:41;28.10;66.50
23301;DHT22;11819;51.394;12.340;2023-06-22T09:58:07;28.20;66.50
23301;DHT22;11819;51.394;12.340;2023-06-22T10:00:33;28.30;66.60
23301;DHT22;11819;51.394;12.340;2023-06-22T10:02:58;28.30;64.90
23301;DHT22;11819;51.394;12.340;2023-06-22T10:05:24;28.20;64.20
23301;DHT22;11819;51.394;12.340;2023-06-22T10:07:50;28.30;65.30
23301;DHT22;11819;51.394;12.340;2023-06-22T10:10:16;28.20;65.70
23301;DHT22;11819;51.394;12.340;2023-06-22T10:12:47;28.30;65.70
23301;DHT22;11819;51.394;12.340;2023-06-22T10:15:13;28.30;66.00
23301;DHT22;11819;51.394;12.340;2023-06-22T10:17:38;28.30;66.20
23301;DHT22;11819;51.394;12.340;2023-06-22T10:20:06;28.40;66.30
23301;DHT22;11819;51.394;12.340;2023-06-22T10:22:42;28.40;65.90
23301;DHT22;11819;51.394;12.340;2023-06-22T10:25:09;28.40;65.30
23301;DHT22;11819;51.394;12.340;2023-06-22T10:27:34;28.50;65.20
23301;DHT22;11819;51.394;12.340;2023-06-22T10:30:00;28.60;65.00
23301;DHT22;11819;51.394;12.340;2023-06-22T10:32:26;28.70;65.00
23301;DHT22;11819;51.394;12.340;2023-06-22T10:34:54;28.80;65.40
23301;DHT22;11819;51.394;12.340;2023-06-22T10:37:19;28.90;65.40
23301;DHT22;11819;51.394;12.340;2023-06-22T10:39:45;28.90;65.60
23301;DHT22;11819;51.394;12.340;2023-06-22T10:42:12;29.00;65.40
23301;DHT22;11819;51.394;12.340;2023-06-22T10:44:37;29.10;63.80
23301;DHT22;11819;51.394;12.340;2023-06-22T10:47:04;29.20;63.10
23301;DHT22;11819;51.394;12.340;2023-06-22T10:49:30;29.30;62.40
23301;DHT22;11819;51.394;12.340;2023-06-22T10:51:56;29.40;61.60
23301;DHT22;11819;51.394;12.340;2023-06-22T10:54:21;29.50;61.30
23301;DHT22;11819;51.394;12.340;2023-06-22T10:56:47;29.60;60.90
23301;DHT22;11819;51.394;12.340;2023-06-22T10:59:12;29.70;60.50
23301;DHT22;11819;51.394;12.340;2023-06-22T11:01:38;29.80;60.60
23301;DHT22;11819;51.394;12.340;2023-06-22T11:04:03;29.90;59.90
23301;DHT22;11819;51.394;12.340;2023-06-22T11:06:30;30.00;58.70
23301;DHT22;11819;51.394;12.340;2023-06-22T11:08:55;30.10;58.40
23301;DHT22;11819;51.394;12.340;2023-06-22T11:11:21;30.30;58.50
23301;DHT22;11819;51.394;12.340;2023-06-22T11:13:47;30.40;58.60
23301;DHT22;11819;51.394;12.340;2023-06-22T11:16:12;30.50;58.10
23301;DHT22;11819;51.394;12.340;2023-06-22T11:18:38;30.40;58.00
23301;DHT22;11819;51.394;12.340;2023-06-22T11:21:03;30.40;58.10
23301;DHT22;11819;51.394;12.340;2023-06-22T11:23:29;30.50;57.90
23301;DHT22;11819;51.394;12.340;2023-06-22T11:25:55;30.70;57.70
23301;DHT22;11819;51.394;12.340;2023-06-22T11:28:20;30.80;57.80
23301;DHT22;11819;51.394;12.340;2023-06-22T11:30:46;31.00;57.40
23301;DHT22;11819;51.394;12.340;2023-06-22T11:33:12;31.10;57.50
23301;DHT22;11819;51.394;12.340;2023-06-22T11:35:38;31.20;55.70
23301;DHT22;11819;51.394;12.340;2023-06-22T11:38:03;31.20;55.90
23301;DHT22;11819;51.394;12.340;2023-06-22T11:40:30;31.10;56.00
23301;DHT22;11819;51.394;12.340;2023-06-22T11:42:56;31.20;56.30
23301;DHT22;11819;51.394;12.340;2023-06-22T11:45:22;31.50;55.80
23301;DHT22;11819;51.394;12.340;2023-06-22T11:47:48;31.60;55.20
23301;DHT22;11819;51.394;12.340;2023-06-22T11:50:14;31.80;54.40
23301;DHT22;11819;51.394;12.340;2023-06-22T11:52:40;32.00;54.00
23301;DHT22;11819;51.394;12.340;2023-06-22T11:55:06;32.20;53.70
23301;DHT22;11819;51.394;12.340;2023-06-22T11:57:36;32.30;53.50
23301;DHT22;11819;51.394;12.340;2023-06-22T12:00:03;32.40;53.70
23301;DHT22;11819;51.394;12.340;2023-06-22T12:02:43;32.70;53.60
23301;DHT22;11819;51.394;12.340;2023-06-22T12:05:10;32.80;52.30
23301;DHT22;11819;51.394;12.340;2023-06-22T12:07:36;32.80;52.60
23301;DHT22;11819;51.394;12.340;2023-06-22T12:10:03;32.90;52.30
23301;DHT22;11819;51.394;12.340;2023-06-22T12:12:28;33.10;52.40
23301;DHT22;11819;51.394;12.340;2023-06-22T12:14:54;33.10;52.10
23301;DHT22;11819;51.394;12.340;2023-06-22T12:17:19;33.30;51.70
23301;DHT22;11819;51.394;12.340;2023-06-22T12:19:45;33.30;51.70
23301;DHT22;11819;51.394;12.340;2023-06-22T12:22:11;33.30;51.10
23301;DHT22;11819;51.394;12.340;2023-06-22T12:24:36;33.10;51.50
23301;DHT22;11819;51.394;12.340;2023-06-22T12:27:02;33.00;52.10
23301;DHT22;11819;51.394;12.340;2023-06-22T12:29:29;33.10;52.50
23301;DHT22;11819;51.394;12.340;2023-06-22T12:31:54;33.30;52.30
23301;DHT22;11819;51.394;12.340;2023-06-22T12:34:20;33.30;51.40
23301;DHT22;11819;51.394;12.340;2023-06-22T12:36:45;33.30;51.20
23301;DHT22;11819;51.394;12.340;2023-06-22T12:39:13;33.40;51.90
23301;DHT22;11819;51.394;12.340;2023-06-22T12:41:39;33.60;51.70
23301;DHT22;11819;51.394;12.340;2023-06-22T12:44:04;34.00;51.00
23301;DHT22;11819;51.394;12.340;2023-06-22T12:46:30;34.30;49.70
23301;DHT22;11819;51.394;12.340;2023-06-22T12:49:03;34.50;48.90
23301;DHT22;11819;51.394;12.340;2023-06-22T12:51:29;34.80;48.70
23301;DHT22;11819;51.394;12.340;2023-06-22T12:53:55;35.00;48.70
23301;DHT22;11819;51.394;12.340;2023-06-22T12:56:21;35.20;48.20
23301;DHT22;11819;51.394;12.340;2023-06-22T12:58:47;35.30;48.00
23301;DHT22;11819;51.394;12.340;2023-06-22T13:01:12;35.10;48.30
23301;DHT22;11819;51.394;12.340;2023-06-22T13:03:38;35.10;48.80
23301;DHT22;11819;51.394;12.340;2023-06-22T13:06:03;35.30;48.40
23301;DHT22;11819;51.394;12.340;2023-06-22T13:08:30;35.30;48.20
23301;DHT22;11819;51.394;12.340;2023-06-22T13:10:55;35.10;48.10
23301;DHT22;11819;51.394;12.340;2023-06-22T13:13:23;34.70;47.80
23301;DHT22;11819;51.394;12.340;2023-06-22T13:15:50;34.50;48.30
23301;DHT22;11819;51.394;12.340;2023-06-22T13:18:16;34.60;49.30
23301;DHT22;11819;51.394;12.340;2023-06-22T13:20:41;34.90;49.30
23301;DHT22;11819;51.394;12.340;2023-06-22T13:23:07;35.20;49.00
23301;DHT22;11819;51.394;12.340;2023-06-22T13:25:32;35.50;49.10
23301;DHT22;11819;51.394;12.340;2023-06-22T13:27:58;35.80;48.20
23301;DHT22;11819;51.394;12.340;2023-06-22T13:30:24;36.10;47.20
23301;DHT22;11819;51.394;12.340;2023-06-22T13:32:49;36.30;47.10
23301;DHT22;11819;51.394;12.340;2023-06-22T13:35:15;36.30;46.80
23301;DHT22;11819;51.394;12.340;2023-06-22T13:37:40;36.10;46.90
23301;DHT22;11819;51.394;12.340;2023-06-22T13:40:07;35.80;47.30
23301;DHT22;11819;51.394;12.340;2023-06-22T13:42:33;35.60;48.10
23301;DHT22;11819;51.394;12.340;2023-06-22T13:44:58;35.80;47.80
23301;DHT22;11819;51.394;12.340;2023-06-22T13:47:24;36.00;47.80
23301;DHT22;11819;51.394;12.340;2023-06-22T13:49:50;36.40;47.20
23301;DHT22;11819;51.394;12.340;2023-06-22T13:52:15;36.60;46.50
23301;DHT22;11819;51.394;12.340;2023-06-22T13:54:41;36.40;46.50
23301;DHT22;11819;51.394;12.340;2023-06-22T13:57:07;36.60;47.10
23301;DHT22;11819;51.394;12.340;2023-06-22T13:59:32;36.90;46.50
23301;DHT22;11819;51.394;12.340;2023-06-22T14:01:58;37.20;46.00
23301;DHT22;11819;51.394;12.340;2023-06-22T14:04:24;37.40;45.40
23301;DHT22;11819;51.394;12.340;2023-06-22T14:06:49;37.60;44.70
23301;DHT22;11819;51.394;12.340;2023-06-22T14:09:15;37.60;45.20
23301;DHT22;11819;51.394;12.340;2023-06-22T14:11:40;37.80;45.20
23301;DHT22;11819;51.394;12.340;2023-06-22T14:14:06;37.90;45.10
23301;DHT22;11819;51.394;12.340;2023-06-22T14:16:32;37.80;44.70
23301;DHT22;11819;51.394;12.340;2023-06-22T14:18:57;37.50;45.00
23301;DHT22;11819;51.394;12.340;2023-06-22T14:21:23;37.40;45.60
23301;DHT22;11819;51.394;12.340;2023-06-22T14:23:49;37.40;45.40
23301;DHT22;11819;51.394;12.340;2023-06-22T14:26:18;37.50;45.80
23301;DHT22;11819;51.394;12.340;2023-06-22T14:28:47;37.30;45.50
23301;DHT22;11819;51.394;12.340;2023-06-22T14:31:18;36.80;46.10
23301;DHT22;11819;51.394;12.340;2023-06-22T14:33:48;36.30;46.90
23301;DHT22;11819;51.394;12.340;2023-06-22T14:36:14;35.90;47.50
23301;DHT22;11819;51.394;12.340;2023-06-22T14:38:40;35.60;47.80
23301;DHT22;11819;51.394;12.340;2023-06-22T14:41:06;35.60;48.20
23301;DHT22;11819;51.394;12.340;2023-06-22T14:43:31;35.90;48.70
23301;DHT22;11819;51.394;12.340;2023-06-22T14:45:57;36.00;48.00
23301;DHT22;11819;51.394;12.340;2023-06-22T14:48:23;35.90;47.80
23301;DHT22;11819;51.394;12.340;2023-06-22T14:50:48;35.70;48.20
23301;DHT22;11819;51.394;12.340;2023-06-22T14:53:14;35.60;48.40
23301;DHT22;11819;51.394;12.340;2023-06-22T14:55:40;35.80;48.60
23301;DHT22;11819;51.394;12.340;2023-06-22T14:58:06;35.90;48.20
23301;DHT22;11819;51.394;12.340;2023-06-22T15:00:31;35.90;48.10
23301;DHT22;11819;51.394;12.340;2023-06-22T15:02:57;35.80;48.50
23301;DHT22;11819;51.394;12.340;2023-06-22T15:05:24;35.50;47.80
23301;DHT22;11819;51.394;12.340;2023-06-22T15:07:50;35.30;48.40
23301;DHT22;11819;51.394;12.340;2023-06-22T15:10:16;35.20;48.90
23301;DHT22;11819;51.394;12.340;2023-06-22T15:12:42;35.10;49.50
23301;DHT22;11819;51.394;12.340;2023-06-22T15:15:07;35.30;49.30
23301;DHT22;11819;51.394;12.340;2023-06-22T15:17:33;35.60;49.10